Pont-y-pwl, United Kingdom
Current Conditions -  °F | °C
As of 4:50 PM on Saturday 25 Oct 2014 (Local Time) from EGFF Reporting Station
Overcast Overcast  
Wind Chill: 55°   Ceiling: 2100
Heat Index: 55°   Visibility: 6mi
Dew Point: 50°   Wind: 14mph
Humidity: 82%   Direction: 250°WSW
Pressure: 30.06"   Gusts: NA
Location:  51.7°N, 3.04°W
Report Text: EGFF 251550Z AUTO 25012KT 9999 FEW012 BKN021 OVC033 13/10 Q1018
Loading
Personal Weather Stations






























Interactive Weather Map
Tropical Storm Tracking
New forecast layout! Learn more

10-Day Weather Forecast

Advertisements
Track Severe Weather on mobile